Time;durP1;ratioP1;P1;durP2;ratioP2;P2;SDS_P1;SDS_P2;PMS_P1;PMS_P2;Temp;Humidity;BMP_temperature;BMP_pressure;BME280_temperature;BME280_humidity;BME280_pressure;Samples;Min_cycle;Max_cycle;Signal;HPM_P1;HPM_P2
2023/05/23 00:02:06;;;;;;;7.30;4.30;;;;;;;25.86;29.65;100084.53;108171;1259;71753;-68
2023/05/23 00:04:35;;;;;;;8.90;4.30;;;;;;;25.95;29.47;100083.97;108172;1257;68612;-66
2023/05/23 00:07:03;;;;;;;7.00;4.30;;;;;;;25.85;29.53;100084.67;108124;1253;71290;-65
2023/05/23 00:09:30;;;;;;;8.30;4.40;;;;;;;25.79;29.50;100079.83;108205;1253;60532;-68
2023/05/23 00:11:58;;;;;;;7.60;4.30;;;;;;;26.13;29.18;100075.71;108162;1252;61012;-66
2023/05/23 00:14:25;;;;;;;8.20;4.40;;;;;;;26.12;29.14;100072.86;108221;1256;71727;-67
2023/05/23 00:16:53;;;;;;;8.90;4.40;;;;;;;26.03;29.23;100069.84;108120;1252;69884;-66
2023/05/23 00:19:21;;;;;;;7.90;4.40;;;;;;;26.15;29.07;100066.23;108111;1253;71475;-68
2023/05/23 00:21:50;;;;;;;11.30;4.00;;;;;;;26.20;28.91;100062.89;108119;1254;60318;-67
2023/05/23 00:24:19;;;;;;;5.20;3.90;;;;;;;26.36;28.70;100059.95;108175;1254;60524;-66
2023/05/23 00:26:46;;;;;;;7.10;4.20;;;;;;;26.25;28.86;100060.37;108128;1253;76393;-66
2023/05/23 00:29:17;;;;;;;6.90;4.20;;;;;;;25.88;29.27;100057.60;108087;1253;70026;-66
2023/05/23 00:31:46;;;;;;;8.90;4.40;;;;;;;26.19;29.03;100053.84;108155;1253;72967;-67
2023/05/23 00:34:17;;;;;;;7.30;4.20;;;;;;;26.52;28.66;100052.25;108053;1258;60316;-66
2023/05/23 00:36:46;;;;;;;7.30;5.00;;;;;;;26.36;28.81;100052.99;108095;1254;59892;-66
2023/05/23 00:39:18;;;;;;;6.60;4.60;;;;;;;25.93;29.34;100055.61;108146;1254;73906;-65
2023/05/23 00:41:48;;;;;;;9.60;5.50;;;;;;;26.09;29.24;100054.93;108089;1254;68997;-67
2023/05/23 00:44:21;;;;;;;;;;;;;;;26.20;29.20;100059.59;108007;1259;73213;-67
2023/05/23 00:46:54;;;;;;;8.30;4.20;;;;;;;26.17;29.15;100060.51;108096;1258;60605;-69
2023/05/23 00:49:22;;;;;;;8.00;4.90;;;;;;;26.24;29.13;100058.00;108055;1253;60199;-66
2023/05/23 00:51:50;;;;;;;8.20;5.00;;;;;;;26.09;29.32;100050.14;108032;1253;72828;-66
2023/05/23 00:54:28;;;;;;;7.60;4.60;;;;;;;26.01;29.45;100053.33;107998;1260;68738;-67
2023/05/23 00:56:56;;;;;;;7.60;5.00;;;;;;;25.87;29.72;100049.60;108008;1254;71468;-65
2023/05/23 00:59:23;;;;;;;7.90;4.70;;;;;;;25.82;29.73;100046.13;107916;1254;62100;-66
2023/05/23 01:01:51;;;;;;;11.00;5.70;;;;;;;25.52;30.19;100047.36;108022;1254;60414;-66
2023/05/23 01:04:19;;;;;;;7.30;5.10;;;;;;;25.52;30.22;100041.80;108067;1254;72576;-66
2023/05/23 01:06:47;;;;;;;8.80;5.20;;;;;;;25.19;30.69;100039.85;107937;1255;70541;-65
2023/05/23 01:09:15;;;;;;;6.60;4.70;;;;;;;25.30;30.71;100039.30;108077;1258;70914;-66
2023/05/23 01:11:49;;;;;;;10.40;5.00;;;;;;;25.21;30.73;100039.50;107983;1255;61674;-66
2023/05/23 01:14:20;;;;;;;7.00;5.10;;;;;;;24.93;31.25;100041.19;108136;1259;60448;-65
2023/05/23 01:16:56;;;;;;;10.30;5.60;;;;;;;25.00;31.28;100044.27;108033;1254;73054;-65
2023/05/23 01:19:49;;;;;;;9.20;5.80;;;;;;;24.94;31.21;100045.45;108069;1255;70610;-66
2023/05/23 01:22:30;;;;;;;9.80;6.40;;;;;;;25.13;31.18;100040.23;107932;1258;71492;-66
2023/05/23 01:25:14;;;;;;;11.40;5.80;;;;;;;25.15;31.19;100038.60;108083;1259;61708;-66
2023/05/23 01:27:49;;;;;;;7.20;5.90;;;;;;;25.08;31.14;100040.17;108069;1254;61238;-67
2023/05/23 01:30:18;;;;;;;9.40;6.50;;;;;;;24.92;31.47;100042.30;108120;1254;73315;-67
2023/05/23 01:32:50;;;;;;;13.60;6.50;;;;;;;24.78;31.60;100039.02;108181;1254;68219;-66
2023/05/23 01:35:27;;;;;;;10.00;6.50;;;;;;;24.83;31.43;100039.10;108130;1254;72730;-65
2023/05/23 01:37:55;;;;;;;9.30;6.60;;;;;;;24.86;31.54;100037.92;108046;1259;61669;-65
2023/05/23 01:40:23;;;;;;;9.20;6.10;;;;;;;24.68;31.98;100037.38;108104;1254;60617;-67
2023/05/23 01:42:54;;;;;;;9.40;6.90;;;;;;;24.64;31.95;100042.97;108149;1259;72660;-64
2023/05/23 01:45:21;;;;;;;9.40;6.50;;;;;;;24.64;32.07;100037.59;108110;1259;70073;-66
2023/05/23 01:47:49;;;;;;;9.70;5.90;;;;;;;24.56;32.12;100035.09;107724;1254;72702;-65
2023/05/23 01:50:17;;;;;;;9.50;7.00;;;;;;;24.11;32.67;100040.83;107991;1254;60448;-65
2023/05/23 01:52:45;;;;;;;8.90;6.10;;;;;;;24.01;32.85;100039.82;107998;1254;60431;-66
2023/05/23 01:55:14;;;;;;;10.20;6.90;;;;;;;23.97;32.96;100038.73;108033;1260;73408;-68
2023/05/23 01:57:42;;;;;;;10.70;7.00;;;;;;;23.53;33.65;100033.02;108176;1254;68706;-66
2023/05/23 02:00:11;;;;;;;10.80;6.30;;;;;;;23.48;33.71;100037.04;108008;1259;72690;-66
2023/05/23 02:02:41;;;;;;;11.40;6.20;;;;;;;23.46;33.82;100035.56;108106;1254;60633;-65
2023/05/23 02:05:10;;;;;;;11.00;6.10;;;;;;;23.33;34.03;100035.55;108109;1254;59609;-65
2023/05/23 02:07:38;;;;;;;10.70;6.40;;;;;;;23.45;33.89;100032.96;108090;1255;73857;-66
2023/05/23 02:10:08;;;;;;;9.30;6.70;;;;;;;23.20;34.16;100034.07;107972;1253;70281;-66
2023/05/23 02:12:37;;;;;;;14.70;6.40;;;;;;;23.03;34.47;100036.83;108089;1254;72685;-67
2023/05/23 02:15:06;;;;;;;9.60;6.50;;;;;;;23.17;34.38;100036.63;108048;1252;60835;-67
2023/05/23 02:17:34;;;;;;;9.00;6.40;;;;;;;23.47;33.81;100038.58;108032;1253;60499;-66
2023/05/23 02:20:01;;;;;;;9.70;6.40;;;;;;;23.38;34.10;100038.49;108088;1254;74352;-67
2023/05/23 02:22:30;;;;;;;8.50;6.20;;;;;;;23.36;34.04;100030.30;108138;1253;70230;-66
2023/05/23 02:24:57;;;;;;;11.30;6.70;;;;;;;23.23;34.28;100028.20;108005;1260;72625;-66
2023/05/23 02:27:25;;;;;;;9.50;6.40;;;;;;;23.25;34.26;100024.44;108113;1254;60935;-66
2023/05/23 02:29:52;;;;;;;10.90;6.30;;;;;;;23.56;33.90;100022.15;108075;1254;60302;-66
2023/05/23 02:32:20;;;;;;;8.10;6.20;;;;;;;23.43;34.03;100024.20;108050;1254;74369;-67
2023/05/23 02:34:49;;;;;;;10.20;6.70;;;;;;;23.40;34.08;100023.60;108112;1253;70160;-65
2023/05/23 02:37:16;;;;;;;10.00;6.50;;;;;;;23.52;34.25;100021.61;108111;1254;71378;-64
2023/05/23 02:39:44;;;;;;;10.60;6.00;;;;;;;23.72;33.94;100027.13;108100;1254;60763;-66
2023/05/23 02:42:11;;;;;;;11.70;6.70;;;;;;;23.75;33.97;100022.70;108058;1254;60329;-66
2023/05/23 02:44:39;;;;;;;9.20;6.00;;;;;;;23.70;33.84;100024.26;108000;1254;72976;-65
2023/05/23 02:47:06;;;;;;;10.50;6.20;;;;;;;23.77;33.86;100025.02;107910;1254;70103;-65
2023/05/23 02:49:34;;;;;;;8.00;6.00;;;;;;;23.69;33.96;100024.18;108094;1259;72722;-64
2023/05/23 02:52:01;;;;;;;8.30;5.80;;;;;;;23.96;33.75;100021.63;108109;1254;61717;-67
2023/05/23 02:54:30;;;;;;;11.20;6.20;;;;;;;23.90;33.77;100023.66;108021;1252;60970;-67
2023/05/23 02:56:58;;;;;;;10.20;6.00;;;;;;;23.85;33.73;100025.87;107825;1253;72602;-65
2023/05/23 02:59:26;;;;;;;10.30;5.90;;;;;;;24.02;33.59;100022.30;108001;1255;70305;-65
2023/05/23 03:01:53;;;;;;;10.00;6.00;;;;;;;23.91;33.89;100024.58;108086;1255;71038;-64
2023/05/23 03:04:21;;;;;;;8.00;5.80;;;;;;;23.86;33.99;100020.37;108007;1254;60442;-65
2023/05/23 03:06:48;;;;;;;9.20;6.10;;;;;;;23.89;34.04;100024.81;108014;1254;60406;-65
2023/05/23 03:09:16;;;;;;;8.50;5.10;;;;;;;24.10;33.69;100021.04;108100;1254;72556;-67
2023/05/23 03:11:44;;;;;;;10.20;5.70;;;;;;;23.91;33.89;100016.69;107963;1260;69055;-68
2023/05/23 03:14:11;;;;;;;9.30;6.10;;;;;;;24.04;33.80;100017.08;107976;1257;72780;-67
2023/05/23 03:16:39;;;;;;;12.30;6.60;;;;;;;24.19;33.61;100016.56;108091;1254;60661;-67
2023/05/23 03:19:07;;;;;;;12.50;6.00;;;;;;;24.34;33.42;100016.02;108206;1257;60211;-67
2023/05/23 03:21:35;;;;;;;8.10;6.10;;;;;;;24.22;33.49;100016.26;108130;1254;73107;-68
2023/05/23 03:24:02;;;;;;;8.90;5.90;;;;;;;24.46;33.32;100010.07;108095;1254;70718;-66
2023/05/23 03:26:30;;;;;;;10.70;6.20;;;;;;;24.79;32.87;100007.91;108009;1254;72711;-67
2023/05/23 03:28:57;;;;;;;12.50;6.10;;;;;;;23.82;34.18;100014.09;108106;1254;61615;-67
2023/05/23 03:31:25;;;;;;;8.10;5.30;;;;;;;24.46;33.69;100007.86;108094;1257;60518;-67
2023/05/23 03:33:52;;;;;;;10.30;5.50;;;;;;;24.89;32.94;100009.77;108080;1254;73844;-68
2023/05/23 03:36:20;;;;;;;10.60;5.90;;;;;;;25.25;32.64;100011.41;108063;1254;70619;-66
2023/05/23 03:38:48;;;;;;;8.60;6.00;;;;;;;25.32;32.57;100011.95;108077;1254;71606;-66
2023/05/23 03:41:16;;;;;;;6.80;5.20;;;;;;;25.47;32.42;100010.89;108155;1253;61686;-67
2023/05/23 03:43:43;;;;;;;13.00;6.20;;;;;;;25.66;32.26;100011.08;108152;1254;60293;-66
2023/05/23 03:46:11;;;;;;;8.70;6.30;;;;;;;25.76;31.97;100015.40;108076;1253;71915;-66
2023/05/23 03:48:40;;;;;;;11.50;5.50;;;;;;;25.93;31.87;100014.43;108070;1253;69626;-67
2023/05/23 03:51:08;;;;;;;9.70;6.20;;;;;;;26.01;32.00;100014.67;108046;1254;71389;-67
2023/05/23 03:53:36;;;;;;;9.80;5.60;;;;;;;26.32;31.91;100015.22;108153;1254;60817;-67
2023/05/23 03:56:03;;;;;;;7.50;5.70;;;;;;;26.91;31.25;100006.48;108137;1254;60283;-67
2023/05/23 03:58:31;;;;;;;11.80;5.40;;;;;;;27.09;30.78;100007.08;108093;1254;72972;-66
2023/05/23 04:01:01;;;;;;;12.30;5.40;;;;;;;27.08;30.74;100009.15;108208;1254;70007;-66
2023/05/23 04:03:31;;;;;;;11.90;5.70;;;;;;;26.87;30.92;100009.75;108026;1253;72795;-65
2023/05/23 04:06:01;;;;;;;10.50;5.50;;;;;;;27.28;30.35;100007.82;107979;1254;60533;-67
2023/05/23 04:08:32;;;;;;;9.80;5.50;;;;;;;27.56;30.39;100011.09;108060;1254;59959;-68
2023/05/23 04:11:00;;;;;;;;;;;;;;;27.60;30.05;100013.95;107975;1254;72920;-69
2023/05/23 04:13:32;;;;;;;12.80;5.40;;;;;;;27.37;30.45;100015.14;107913;1253;69930;-67
2023/05/23 04:16:00;;;;;;;10.30;5.90;;;;;;;27.56;30.22;100015.95;108004;1254;72654;-67
2023/05/23 04:18:29;;;;;;;9.90;5.30;;;;;;;27.55;30.35;100010.38;107931;1260;60274;-67
2023/05/23 04:20:56;;;;;;;6.50;5.10;;;;;;;27.93;29.83;100016.55;108107;1253;60529;-68
2023/05/23 04:23:24;;;;;;;7.50;5.50;;;;;;;28.26;29.39;100012.55;107923;1254;74008;-70
2023/05/23 04:25:53;;;;;;;9.40;6.10;;;;;;;28.22;29.49;100008.83;108145;1254;69234;-67
2023/05/23 04:28:26;;;;;;;15.50;5.60;;;;;;;28.32;29.70;100010.06;107964;1254;72077;-68
2023/05/23 04:30:55;;;;;;;14.80;5.70;;;;;;;28.43;29.44;100008.64;108101;1254;60451;-68
2023/05/23 04:33:27;;;;;;;13.20;5.60;;;;;;;28.52;29.42;100009.76;108025;1254;61579;-68
2023/05/23 04:35:56;;;;;;;10.20;5.30;;;;;;;28.38;29.63;100010.08;107947;1254;72543;-67
2023/05/23 04:38:24;;;;;;;13.90;6.00;;;;;;;28.55;29.42;100009.41;108061;1254;70102;-67
2023/05/23 04:40:52;;;;;;;9.30;4.90;;;;;;;28.85;29.21;100008.52;107949;1256;72732;-68
2023/05/23 04:43:43;;;;;;;;;;;;;;;29.26;28.97;100005.66;108057;1254;60409;-67
2023/05/23 04:46:20;;;;;;;10.20;5.20;;;;;;;29.39;28.50;100009.24;107931;1260;59794;-68
2023/05/23 04:48:55;;;;;;;12.00;5.30;;;;;;;29.31;28.73;100008.38;108021;1253;75239;-69
2023/05/23 04:51:23;;;;;;;10.00;5.50;;;;;;;29.38;28.46;100008.08;107925;1254;69171;-68
2023/05/23 04:53:55;;;;;;;6.80;4.80;;;;;;;29.50;28.34;100008.95;108028;1254;72700;-68
2023/05/23 04:56:26;;;;;;;8.30;5.30;;;;;;;29.90;27.80;100009.29;108186;1253;60405;-67
2023/05/23 04:58:54;;;;;;;11.80;5.50;;;;;;;29.99;27.51;100009.42;108038;1254;59280;-65
2023/05/23 05:01:23;;;;;;;9.30;5.20;;;;;;;30.06;27.63;100017.21;107995;1255;73923;-67
2023/05/23 05:03:51;;;;;;;14.50;5.00;;;;;;;30.21;27.29;100016.48;108048;1254;68884;-66
2023/05/23 05:06:20;;;;;;;16.40;5.00;;;;;;;30.59;27.05;100015.27;108069;1253;71485;-68
2023/05/23 05:08:48;;;;;;;10.40;5.60;;;;;;;31.09;26.94;100017.20;108036;1254;60464;-68
2023/05/23 05:11:15;;;;;;;11.70;5.50;;;;;;;31.46;26.39;100019.28;107923;1253;62306;-68
2023/05/23 05:13:43;;;;;;;13.70;6.40;;;;;;;31.93;25.76;100017.42;107955;1254;74098;-67
2023/05/23 05:16:10;;;;;;;11.50;5.30;;;;;;;32.27;25.46;100020.08;108045;1253;70540;-66
2023/05/23 05:18:39;;;;;;;11.60;5.90;;;;;;;32.86;24.81;100016.77;107934;1254;72666;-67
2023/05/23 05:21:06;;;;;;;11.90;5.90;;;;;;;33.48;24.28;100016.19;108054;1254;60313;-68
2023/05/23 05:23:36;;;;;;;17.00;5.80;;;;;;;33.99;23.54;100019.01;107916;1254;59126;-69
2023/05/23 05:26:04;;;;;;;13.70;5.90;;;;;;;34.22;23.31;100019.90;108036;1254;63646;-66
2023/05/23 05:28:32;;;;;;;16.40;6.00;;;;;;;34.45;23.14;100020.30;108045;1253;63871;-68
2023/05/23 05:31:03;;;;;;;9.40;5.40;;;;;;;34.56;23.07;100018.21;108050;1254;71683;-68
2023/05/23 05:33:34;;;;;;;12.80;6.00;;;;;;;34.74;22.83;100017.52;108059;1253;60415;-68
2023/05/23 05:36:08;;;;;;;14.10;5.70;;;;;;;34.90;22.78;100017.43;108074;1253;59921;-68
2023/05/23 05:38:36;;;;;;;13.10;5.30;;;;;;;34.82;22.61;100019.55;108118;1254;65239;-66
2023/05/23 05:41:03;;;;;;;14.30;5.10;;;;;;;34.72;22.51;100019.24;107943;1253;61410;-69
2023/05/23 05:43:35;;;;;;;11.80;5.20;;;;;;;34.77;22.65;100018.71;108140;1254;62536;-65
2023/05/23 05:46:03;;;;;;;11.90;5.20;;;;;;;34.78;22.53;100011.86;108114;1251;60319;-64
2023/05/23 05:48:31;;;;;;;22.80;5.90;;;;;;;34.64;23.00;100013.14;107828;1260;60337;-65
2023/05/23 05:51:03;;;;;;;10.90;4.80;;;;;;;34.62;22.88;100013.14;107678;1256;75915;-64
2023/05/23 05:53:32;;;;;;;7.80;4.30;;;;;;;34.67;22.87;100011.77;107719;1257;70207;-64
2023/05/23 05:56:01;;;;;;;12.00;4.20;;;;;;;34.88;22.55;100010.29;107880;1256;62634;-66
2023/05/23 05:58:29;;;;;;;10.60;4.10;;;;;;;35.23;22.21;100008.36;107787;1256;60419;-64
2023/05/23 06:01:00;;;;;;;;;;;;;;;35.48;22.01;100010.64;107873;1256;60155;-66
2023/05/23 06:03:27;;;;;;;8.50;4.60;;;;;;;36.14;21.36;100011.30;107793;1257;64924;-65
2023/05/23 06:05:56;;;;;;;19.30;4.90;;;;;;;36.50;20.81;100010.74;107700;1257;60639;-65
2023/05/23 06:08:23;;;;;;;7.80;4.30;;;;;;;36.27;21.03;100011.19;107723;1257;62639;-63
2023/05/23 06:10:51;;;;;;;10.20;5.40;;;;;;;36.15;21.24;100006.92;107895;1257;60368;-65
2023/05/23 06:13:18;;;;;;;12.30;4.50;;;;;;;36.11;21.06;100004.85;107763;1256;60287;-64
2023/05/23 06:15:50;;;;;;;14.30;4.90;;;;;;;35.85;21.26;100004.57;107737;1257;63969;-65
2023/05/23 06:18:18;;;;;;;11.80;4.70;;;;;;;35.75;21.45;100001.84;107649;1257;60514;-64
2023/05/23 06:20:45;;;;;;;6.70;3.60;;;;;;;35.63;21.49;99999.16;107570;1257;63782;-67
2023/05/23 06:23:15;;;;;;;8.60;3.90;;;;;;;35.60;21.40;99996.68;107694;1263;60402;-65
2023/05/23 06:25:44;;;;;;;11.30;4.10;;;;;;;35.65;21.41;99999.55;107705;1257;60324;-64
2023/05/23 06:28:11;;;;;;;9.20;4.40;;;;;;;35.46;21.73;99999.06;107823;1257;64883;-65
2023/05/23 06:30:39;;;;;;;9.80;4.10;;;;;;;35.44;21.75;99995.45;107871;1256;60392;-65
2023/05/23 06:33:07;;;;;;;8.80;3.60;;;;;;;35.28;21.97;99989.67;107832;1256;62796;-64
2023/05/23 06:35:35;;;;;;;8.30;3.70;;;;;;;35.57;21.66;99994.52;107693;1256;60394;-64
2023/05/23 06:38:02;;;;;;;7.30;3.70;;;;;;;35.94;21.59;99992.13;107813;1258;60306;-66
2023/05/23 06:40:29;;;;;;;11.30;3.90;;;;;;;35.99;21.53;99993.41;107752;1262;63710;-64
2023/05/23 06:42:57;;;;;;;6.90;3.30;;;;;;;36.51;21.08;99987.61;107892;1256;61433;-65
2023/05/23 06:45:40;;;;;;;10.50;3.50;;;;;;;37.03;20.43;99984.15;107901;1256;63791;-65
2023/05/23 06:48:10;;;;;;;8.80;3.60;;;;;;;37.53;20.33;99979.05;107729;1257;60416;-64
2023/05/23 06:50:39;;;;;;;8.30;2.50;;;;;;;37.86;19.84;99978.73;107740;1258;60440;-65
2023/05/23 06:53:08;;;;;;;12.40;2.80;;;;;;;37.87;19.38;99976.27;107890;1256;63748;-65
2023/05/23 06:55:35;;;;;;;6.40;2.90;;;;;;;38.21;19.55;99974.74;107720;1261;61411;-66
2023/05/23 06:58:03;;;;;;;8.30;2.90;;;;;;;38.79;19.05;99968.34;107838;1257;64261;-64
2023/05/23 07:00:30;;;;;;;9.60;2.80;;;;;;;39.21;18.86;99965.77;107728;1256;60436;-66
2023/05/23 07:03:05;;;;;;;6.30;3.00;;;;;;;39.92;18.05;99968.12;107839;1257;60350;-66
2023/05/23 07:05:35;;;;;;;5.10;2.70;;;;;;;40.50;17.52;99969.77;107793;1257;64969;-65
2023/05/23 07:08:09;;;;;;;8.10;2.80;;;;;;;40.58;17.46;99964.17;107881;1257;60474;-66
2023/05/23 07:10:40;;;;;;;6.90;2.90;;;;;;;40.98;17.17;99964.94;107888;1256;63839;-65
2023/05/23 07:13:28;;;;;;;6.30;2.50;;;;;;;40.88;17.11;99960.15;107826;1256;59840;-66
2023/05/23 07:15:56;;;;;;;6.50;2.50;;;;;;;41.02;17.07;99958.62;107779;1255;60449;-66
2023/05/23 07:18:26;;;;;;;7.90;2.80;;;;;;;41.24;16.71;99954.36;107968;1256;64976;-67
2023/05/23 07:21:05;;;;;;;7.40;2.60;;;;;;;41.09;16.94;99949.73;107874;1257;60812;-64
2023/05/23 07:23:35;;;;;;;12.60;3.20;;;;;;;40.91;16.87;99943.94;107709;1257;62429;-63
2023/05/23 07:26:03;;;;;;;6.40;2.50;;;;;;;40.86;17.07;99944.50;107658;1258;60300;-64
2023/05/23 07:28:41;;;;;;;4.90;3.10;;;;;;;40.92;17.12;99938.52;107660;1257;59417;-65
2023/05/23 07:31:09;;;;;;;8.30;2.70;;;;;;;41.19;16.62;99935.48;107531;1257;63848;-64
2023/05/23 07:33:37;;;;;;;7.30;2.70;;;;;;;41.41;16.73;99934.44;107658;1257;60422;-65
2023/05/23 07:36:05;;;;;;;6.60;2.60;;;;;;;41.90;16.51;99939.04;107711;1257;63682;-67
2023/05/23 07:38:32;;;;;;;6.80;2.80;;;;;;;42.17;16.36;99937.17;107715;1258;60382;-66
2023/05/23 07:41:09;;;;;;;6.70;2.60;;;;;;;42.14;15.89;99933.45;107624;1257;59192;-66
2023/05/23 07:43:40;;;;;;;9.50;2.60;;;;;;;41.79;16.38;99929.06;107619;1257;63703;-67
2023/05/23 07:46:08;;;;;;;11.10;4.90;;;;;;;41.39;16.52;99928.67;107643;1257;61425;-64
2023/05/23 07:48:36;;;;;;;7.90;3.90;;;;;;;41.57;16.37;99932.21;107610;1260;63718;-67
2023/05/23 07:51:04;;;;;;;9.50;3.70;;;;;;;42.16;16.06;99930.69;107643;1257;60349;-65
2023/05/23 07:53:31;;;;;;;7.20;2.80;;;;;;;42.06;15.63;99927.20;107701;1257;60426;-68
2023/05/23 07:56:02;;;;;;;4.60;2.30;;;;;;;41.64;16.01;99922.98;107664;1257;65001;-65
2023/05/23 07:58:33;;;;;;;3.90;2.00;;;;;;;41.58;15.74;99918.15;107626;1257;60898;-66
2023/05/23 08:01:02;;;;;;;12.90;3.90;;;;;;;41.73;15.50;99918.30;107594;1257;63809;-67
2023/05/23 08:04:05;;;;;;;15.40;3.70;;;;;;;41.51;15.97;99914.67;107578;1260;60894;-67
2023/05/23 08:06:46;;;;;;;3.80;2.30;;;;;;;41.56;15.91;99918.80;107735;1257;60484;-65
2023/05/23 08:09:51;;;;;;;9.60;2.70;;;;;;;41.93;15.59;99912.11;107649;1257;63668;-63
2023/05/23 08:12:19;;;;;;;7.10;2.30;;;;;;;42.15;15.24;99911.77;107721;1258;61410;-66
2023/05/23 08:17:06;;;;;;;7.30;1.80;;;;;;;39.37;17.45;99904.47;104855;1289;600473;-66
2023/05/23 08:19:36;;;;;;;9.10;2.30;;;;;;;40.46;16.57;99901.67;107268;1265;59251;-64
2023/05/23 08:22:03;;;;;;;8.80;2.50;;;;;;;40.40;16.66;99904.85;107173;1266;59160;-65
2023/05/23 08:24:33;;;;;;;8.20;2.70;;;;;;;40.65;16.74;99898.90;107237;1266;63327;-64
2023/05/23 08:27:00;;;;;;;6.00;2.30;;;;;;;40.88;16.40;99894.00;107231;1266;60108;-65
2023/05/23 08:29:28;;;;;;;11.70;2.30;;;;;;;41.12;16.29;99893.88;107226;1266;63730;-64
2023/05/23 08:31:55;;;;;;;16.90;2.60;;;;;;;41.22;16.24;99883.57;107135;1264;191386;-64
2023/05/23 08:34:23;;;;;;;11.10;2.50;;;;;;;40.98;16.11;99887.84;107738;1256;59250;-65
2023/05/23 08:36:51;;;;;;;6.00;2.80;;;;;;;40.69;16.00;99889.56;107795;1256;74424;-64
2023/05/23 08:39:20;;;;;;;6.60;2.40;;;;;;;40.77;16.16;99885.28;107725;1256;60237;-66
2023/05/23 08:41:55;;;;;;;8.40;2.00;;;;;;;41.25;15.63;99872.21;107621;1257;62515;-65
2023/05/23 08:44:22;;;;;;;8.00;2.50;;;;;;;41.27;15.68;99867.25;107730;1256;59646;-64
2023/05/23 08:46:54;;;;;;;7.40;2.50;;;;;;;41.53;16.11;99873.06;107645;1263;59523;-64
2023/05/23 08:49:37;;;;;;;13.80;2.30;;;;;;;41.82;15.79;99874.40;108086;1253;62905;-64
2023/05/23 08:52:05;;;;;;;5.40;2.00;;;;;;;42.04;15.42;99871.08;108178;1252;61538;-64
2023/05/23 08:54:34;;;;;;;7.30;2.20;;;;;;;42.43;15.10;99869.08;107838;1253;63127;-66
2023/05/23 08:57:01;;;;;;;15.20;2.50;;;;;;;42.76;14.96;99864.48;108096;1253;59507;-65
2023/05/23 08:59:29;;;;;;;6.00;2.20;;;;;;;43.02;14.73;99861.00;108048;1253;59499;-65
2023/05/23 09:01:57;;;;;;;7.60;2.50;;;;;;;43.43;14.52;99863.68;107682;1253;65104;-66
2023/05/23 09:04:25;;;;;;;5.90;2.40;;;;;;;43.63;14.21;99857.77;108039;1254;61556;-65
2023/05/23 09:06:56;;;;;;;7.60;2.10;;;;;;;43.59;14.35;99856.71;108032;1256;63708;-65
2023/05/23 09:09:24;;;;;;;5.80;2.60;;;;;;;43.67;14.35;99862.30;108063;1254;59577;-64
2023/05/23 09:11:53;;;;;;;6.10;2.70;;;;;;;43.74;14.93;99859.34;108097;1253;59622;-65
2023/05/23 09:14:21;;;;;;;7.10;2.70;;;;;;;43.97;14.95;99859.70;108043;1253;64448;-65
2023/05/23 09:16:49;;;;;;;7.40;2.30;;;;;;;43.49;14.97;99858.95;107974;1254;61305;-65
2023/05/23 09:19:20;;;;;;;17.00;3.70;;;;;;;43.04;15.31;99861.45;108065;1254;63832;-66
2023/05/23 09:21:59;;;;;;;7.60;2.60;;;;;;;42.49;15.48;99860.73;108110;1254;59049;-65
2023/05/23 09:24:36;;;;;;;6.30;2.40;;;;;;;42.48;16.12;99856.76;107955;1253;59117;-64
2023/05/23 09:27:07;;;;;;;8.60;2.60;;;;;;;42.66;16.04;99855.83;108110;1253;63010;-65
2023/05/23 09:29:40;;;;;;;4.50;2.30;;;;;;;42.77;15.76;99850.98;108078;1259;60266;-65
2023/05/23 09:32:12;;;;;;;8.40;2.60;;;;;;;43.23;15.00;99844.64;108015;1253;63874;-65
2023/05/23 09:34:41;;;;;;;6.00;2.60;;;;;;;43.94;14.63;99847.60;108100;1253;59610;-64
2023/05/23 09:37:12;;;;;;;6.00;2.20;;;;;;;44.23;14.59;99843.52;108037;1254;58995;-64
2023/05/23 09:39:39;;;;;;;6.70;2.40;;;;;;;44.37;14.42;99843.66;108108;1253;62886;-64
2023/05/23 09:42:07;;;;;;;9.20;2.60;;;;;;;44.32;14.34;99844.63;107969;1253;63839;-64
2023/05/23 09:44:39;;;;;;;7.40;2.50;;;;;;;44.35;14.26;99843.84;108107;1253;64442;-66
2023/05/23 09:47:08;;;;;;;6.90;2.60;;;;;;;43.84;14.55;99837.15;108040;1254;59574;-64
2023/05/23 09:49:38;;;;;;;6.90;2.60;;;;;;;43.08;14.86;99836.45;108132;1253;59113;-66
2023/05/23 09:52:05;;;;;;;5.70;2.70;;;;;;;42.30;15.36;99835.46;108020;1253;64133;-66
2023/05/23 09:54:33;;;;;;;6.90;2.60;;;;;;;42.23;15.41;99827.19;108035;1259;69773;-65
2023/05/23 09:57:01;;;;;;;8.40;2.30;;;;;;;42.48;15.49;99830.02;108080;1254;62406;-65
2023/05/23 09:59:28;;;;;;;13.30;2.60;;;;;;;42.19;15.67;99833.45;108094;1253;59006;-65
2023/05/23 10:01:56;;;;;;;4.50;2.10;;;;;;;42.09;15.86;99834.25;108086;1253;59708;-64
2023/05/23 10:04:23;;;;;;;9.20;2.90;;;;;;;42.02;15.66;99836.15;108179;1253;64135;-65
2023/05/23 10:06:58;;;;;;;9.40;2.60;;;;;;;41.76;16.00;99838.24;107854;1253;60560;-65
2023/05/23 10:09:26;;;;;;;12.30;2.80;;;;;;;41.74;16.06;99841.27;108072;1253;63714;-64
2023/05/23 10:11:53;;;;;;;9.70;2.40;;;;;;;41.80;15.98;99840.70;107991;1253;59508;-64
2023/05/23 10:14:21;;;;;;;6.00;2.70;;;;;;;41.70;16.13;99838.95;108117;1254;59510;-64
2023/05/23 10:17:07;;;;;;;7.80;2.50;;;;;;;41.53;16.45;99834.17;107733;1253;64054;-65
2023/05/23 10:19:49;;;;;;;13.00;2.60;;;;;;;41.63;16.07;99835.15;107970;1253;60315;-66
2023/05/23 10:22:16;;;;;;;4.70;2.40;;;;;;;41.72;15.83;99834.42;108000;1253;63735;-66
2023/05/23 10:24:44;;;;;;;11.10;2.80;;;;;;;41.75;16.04;99831.38;107937;1253;59586;-64
2023/05/23 10:27:12;;;;;;;8.70;2.80;;;;;;;41.57;16.42;99830.96;108097;1253;59499;-65
2023/05/23 10:29:39;;;;;;;6.50;2.50;;;;;;;41.64;16.42;99825.98;108064;1253;64154;-66
2023/05/23 10:32:06;;;;;;;6.00;2.60;;;;;;;41.79;16.61;99819.18;108158;1253;61360;-63
2023/05/23 10:34:56;;;;;;;7.50;2.80;;;;;;;41.83;16.39;99819.10;107985;1254;63725;-65
2023/05/23 10:37:45;;;;;;;7.80;2.80;;;;;;;41.68;16.69;99820.75;108060;1253;60725;-65
2023/05/23 10:40:25;;;;;;;9.80;3.20;;;;;;;41.36;16.98;99821.39;108079;1258;59104;-62
2023/05/23 10:43:04;;;;;;;10.50;2.90;;;;;;;41.04;17.17;99821.17;108125;1253;64116;-66
2023/05/23 10:45:41;;;;;;;6.30;2.50;;;;;;;40.74;17.36;99825.73;108090;1253;61781;-64
2023/05/23 10:48:27;;;;;;;10.60;3.20;;;;;;;40.45;17.52;99827.10;108071;1253;63754;-64
2023/05/23 10:51:03;;;;;;;6.60;2.70;;;;;;;40.01;17.60;99825.95;108093;1253;59450;-64
2023/05/23 10:53:33;;;;;;;7.80;3.40;;;;;;;40.17;17.16;99814.51;108198;1253;59517;-65
2023/05/23 10:56:00;;;;;;;5.70;2.80;;;;;;;40.38;16.91;99807.46;108068;1258;64117;-66
2023/05/23 10:58:31;;;;;;;8.20;2.90;;;;;;;40.08;17.33;99807.78;108096;1253;61335;-68
2023/05/23 11:01:31;;;;;;;10.20;2.70;;;;;;;39.66;17.62;99814.60;108042;1254;62527;-65
2023/05/23 11:04:06;;;;;;;7.50;2.50;;;;;;;39.36;18.30;99817.77;108215;1253;59748;-65
2023/05/23 11:06:43;;;;;;;5.70;2.60;;;;;;;39.14;18.35;99819.65;108100;1253;59567;-66
2023/05/23 11:09:12;;;;;;;8.10;2.40;;;;;;;39.23;18.19;99819.71;108113;1253;62830;-66
2023/05/23 11:11:49;;;;;;;8.90;2.90;;;;;;;39.19;18.27;99814.65;108190;1253;62153;-65
2023/05/23 11:14:17;;;;;;;9.50;2.70;;;;;;;38.85;18.14;99815.20;108149;1253;63776;-63
2023/05/23 11:16:47;;;;;;;14.10;2.90;;;;;;;38.66;17.94;99811.54;108145;1252;59395;-64
2023/05/23 11:19:17;;;;;;;12.50;3.20;;;;;;;38.76;17.82;99807.51;108156;1253;60064;-65
2023/05/23 11:21:50;;;;;;;9.30;2.80;;;;;;;38.85;17.65;99806.02;108131;1253;64123;-65
2023/05/23 11:24:17;;;;;;;7.20;2.40;;;;;;;39.11;17.47;99803.17;108242;1253;60122;-65
2023/05/23 11:27:02;;;;;;;5.50;2.20;;;;;;;39.44;17.32;99802.63;108159;1258;63758;-63
2023/05/23 11:29:30;;;;;;;7.50;2.50;;;;;;;39.74;17.10;99799.95;108035;1253;59373;-64
2023/05/23 11:31:57;;;;;;;7.70;2.50;;;;;;;40.03;16.74;99797.63;108058;1253;59536;-64
2023/05/23 11:34:25;;;;;;;8.80;2.20;;;;;;;40.38;16.41;99792.60;108014;1258;64119;-63
2023/05/23 11:36:56;;;;;;;4.60;2.20;;;;;;;41.13;16.10;99787.15;107940;1254;60352;-65